Time;durP1;ratioP1;P1;durP2;ratioP2;P2;SDS_P1;SDS_P2;PMS_P1;PMS_P2;Temp;Humidity;BMP_temperature;BMP_pressure;BME280_temperature;BME280_humidity;BME280_pressure;Samples;Min_cycle;Max_cycle;Signal;HPM_P1;HPM_P2
2022/10/07 02:46:03;;;;;;;9.80;4.13;;;13.50;99.90;;;;;;6022350;23;88527;31
2022/10/07 02:48:40;;;;;;;8.70;3.80;;;13.50;99.90;;;;;;4880940;28;86343;-70
2022/10/07 02:51:10;;;;;;;10.63;4.00;;;13.60;99.90;;;;;;4878547;28;88176;-69
2022/10/07 02:53:37;;;;;;;;;;;13.70;99.90;;;;;;4879983;28;87925;-70
2022/10/07 02:56:05;;;;;;;6.78;3.22;;;13.70;99.90;;;;;;4881821;28;87051;-69
2022/10/07 02:58:32;;;;;;;8.52;4.43;;;13.80;99.90;;;;;;4881334;28;86711;-70
2022/10/07 03:01:00;;;;;;;16.10;3.97;;;13.80;99.90;;;;;;4880002;28;88119;-70
2022/10/07 03:03:26;;;;;;;9.10;4.05;;;13.70;99.90;;;;;;4880935;28;87534;-69
2022/10/07 03:05:52;;;;;;;8.13;4.63;;;13.70;99.90;;;;;;4880974;28;87019;-70
2022/10/07 03:08:20;;;;;;;8.63;3.95;;;13.70;99.90;;;;;;4878564;28;86798;-69
2022/10/07 03:10:46;;;;;;;7.28;3.63;;;13.80;99.90;;;;;;4880227;28;87293;-70
2022/10/07 03:13:14;;;;;;;6.57;3.45;;;13.80;99.90;;;;;;4881102;28;86970;-70
2022/10/07 03:15:40;;;;;;;8.77;4.00;;;13.80;99.90;;;;;;4881066;28;87635;-70
2022/10/07 03:18:06;;;;;;;10.27;3.72;;;13.80;99.90;;;;;;4881466;28;86212;-70
2022/10/07 03:20:33;;;;;;;9.48;4.07;;;13.80;99.90;;;;;;4879606;28;87272;-70
2022/10/07 03:22:59;;;;;;;8.63;3.97;;;13.80;99.90;;;;;;4878833;28;87226;-69
2022/10/07 03:25:25;;;;;;;9.45;4.10;;;13.80;99.90;;;;;;4880321;28;87010;-70
2022/10/07 03:27:53;;;;;;;6.95;4.03;;;13.80;99.90;;;;;;4880783;28;86397;-70
2022/10/07 03:30:22;;;;;;;8.45;4.32;;;13.80;99.90;;;;;;4879317;28;87225;-70
2022/10/07 03:32:48;;;;;;;;;;;13.90;99.90;;;;;;4878180;28;86960;-70
2022/10/07 03:35:15;;;;;;;8.52;4.22;;;13.70;99.90;;;;;;4881352;28;86332;-70
2022/10/07 03:37:41;;;;;;;8.27;4.18;;;13.70;99.90;;;;;;4880422;28;86771;-70
2022/10/07 03:40:07;;;;;;;7.18;4.38;;;13.70;99.90;;;;;;4879472;28;88765;-70
2022/10/07 03:42:33;;;;;;;7.88;3.92;;;13.80;99.90;;;;;;4879773;28;90255;-70
2022/10/07 03:44:58;;;;;;;9.75;4.75;;;13.80;99.90;;;;;;4880672;28;87076;-70
2022/10/07 03:47:26;;;;;;;8.80;3.97;;;13.80;99.90;;;;;;4880558;28;86671;-70
2022/10/07 03:49:53;;;;;;;9.77;5.20;;;13.90;99.90;;;;;;4877699;28;87143;-70
2022/10/07 03:52:18;;;;;;;9.57;5.03;;;13.80;99.90;;;;;;4878183;28;87457;-70
2022/10/07 03:54:44;;;;;;;11.27;5.00;;;13.70;99.90;;;;;;4878964;28;86576;-70
2022/10/07 04:00:13;;;;;;;8.43;4.53;;;13.70;99.90;;;;;;4837993;29;87136;-70
2022/10/07 04:02:39;;;;;;;8.75;4.35;;;13.70;99.90;;;;;;4834235;29;87253;-70
2022/10/07 04:05:05;;;;;;;9.95;3.95;;;13.70;99.90;;;;;;4849291;28;88384;-70
2022/10/07 04:07:32;;;;;;;11.57;4.45;;;13.70;99.90;;;;;;4880362;28;86883;-69
2022/10/07 04:09:58;;;;;;;7.65;4.35;;;13.70;99.90;;;;;;4884294;28;86642;-69
2022/10/07 04:12:23;;;;;;;9.65;4.65;;;13.70;99.90;;;;;;4878888;28;87269;-70
2022/10/07 04:14:49;;;;;;;8.52;4.00;;;13.50;99.90;;;;;;4880614;28;86378;-71
2022/10/07 04:17:20;;;;;;;9.27;4.32;;;13.40;99.90;;;;;;4879718;28;87004;-71
2022/10/07 04:19:46;;;;;;;8.35;4.97;;;13.50;99.90;;;;;;4878711;28;87304;-70
2022/10/07 04:22:12;;;;;;;7.60;3.92;;;13.50;99.90;;;;;;4879781;28;86924;-70
2022/10/07 04:24:37;;;;;;;7.25;4.15;;;13.50;99.90;;;;;;4879874;28;86639;-70
2022/10/07 04:27:06;;;;;;;8.60;3.85;;;13.40;99.90;;;;;;4879602;28;86870;-71
2022/10/07 04:29:31;;;;;;;8.18;4.88;;;13.40;99.90;;;;;;4877707;28;88193;-70
2022/10/07 04:31:57;;;;;;;7.70;4.88;;;13.40;99.90;;;;;;4879759;28;87160;-70
2022/10/07 04:34:24;;;;;;;9.48;3.97;;;13.20;99.90;;;;;;4878479;28;86507;-70
2022/10/07 04:36:51;;;;;;;12.90;4.40;;;13.40;99.90;;;;;;4877728;28;86837;-70
2022/10/07 04:39:17;;;;;;;8.50;4.03;;;13.40;99.90;;;;;;4880384;28;87226;-69
2022/10/07 04:41:43;;;;;;;9.20;4.25;;;13.40;99.90;;;;;;4882223;28;86901;-69
2022/10/07 04:44:08;;;;;;;8.45;4.05;;;13.40;99.90;;;;;;4882328;28;86990;-69
2022/10/07 04:46:34;;;;;;;6.63;3.33;;;13.40;99.90;;;;;;4882371;28;86272;-70
2022/10/07 04:48:59;;;;;;;9.57;3.95;;;13.40;99.90;;;;;;4876415;28;87239;-70
2022/10/07 04:51:25;;;;;;;8.18;4.05;;;13.50;99.90;;;;;;4879413;28;88330;-70
2022/10/07 04:53:52;;;;;;;12.75;4.68;;;13.40;99.90;;;;;;4881715;28;87899;-69
2022/10/07 04:56:18;;;;;;;9.00;4.85;;;13.40;99.90;;;;;;4881831;28;86272;-70
2022/10/07 04:58:44;;;;;;;12.20;5.32;;;13.20;99.90;;;;;;4880304;28;87354;-69
2022/10/07 05:01:10;;;;;;;10.60;5.13;;;13.00;99.90;;;;;;4880932;28;87323;-69
2022/10/07 05:03:40;;;;;;;10.55;4.57;;;12.80;99.90;;;;;;4873149;28;86569;-69
2022/10/07 05:06:07;;;;;;;8.57;4.32;;;12.80;99.90;;;;;;4880633;28;86398;-69
2022/10/07 05:08:33;;;;;;;10.10;5.43;;;12.90;99.90;;;;;;4881472;28;87199;-70
2022/10/07 05:11:00;;;;;;;12.18;6.40;;;12.90;99.90;;;;;;4880105;28;86891;-69
2022/10/07 05:13:27;;;;;;;12.82;7.60;;;12.90;99.90;;;;;;4879974;28;86629;-69
2022/10/07 05:15:55;;;;;;;12.45;6.10;;;12.90;99.90;;;;;;4881839;28;86794;-69
2022/10/07 05:18:22;;;;;;;11.85;6.55;;;12.90;99.90;;;;;;4880631;28;88198;-69
2022/10/07 05:20:48;;;;;;;10.80;6.18;;;13.00;99.90;;;;;;4879608;28;87310;-69
2022/10/07 05:23:16;;;;;;;12.48;6.45;;;13.10;99.90;;;;;;4879597;28;86421;-69
2022/10/07 05:25:42;;;;;;;12.35;6.22;;;13.10;99.90;;;;;;4876192;28;86399;-69
2022/10/07 05:28:12;;;;;;;13.75;6.18;;;13.20;99.90;;;;;;4881283;28;87124;-70
2022/10/07 05:30:38;;;;;;;16.25;7.55;;;13.30;99.90;;;;;;4877659;28;87411;-69
2022/10/07 05:33:04;;;;;;;12.30;6.80;;;13.30;99.90;;;;;;4878741;28;86704;-69
2022/10/07 05:35:31;;;;;;;12.35;6.82;;;13.30;99.90;;;;;;4880485;28;85500;-69
2022/10/07 05:37:56;;;;;;;11.55;6.80;;;13.40;99.90;;;;;;4879379;28;86585;-69
2022/10/07 05:40:22;;;;;;;16.65;7.28;;;13.50;99.90;;;;;;4880857;28;87700;-70
2022/10/07 05:42:48;;;;;;;15.45;7.45;;;13.50;99.90;;;;;;4879270;28;87159;-69
2022/10/07 05:45:14;;;;;;;15.05;6.88;;;13.50;99.90;;;;;;4876985;28;87018;-69
2022/10/07 05:47:40;;;;;;;12.18;5.95;;;13.50;99.90;;;;;;4877151;28;87169;-69
2022/10/07 05:50:06;;;;;;;18.50;7.97;;;13.60;99.90;;;;;;4878781;28;86841;-69
2022/10/07 05:52:32;;;;;;;17.45;7.32;;;13.60;99.90;;;;;;4879948;28;87417;-69
2022/10/07 05:54:58;;;;;;;19.70;8.27;;;13.40;99.90;;;;;;4874777;28;86359;-69
2022/10/07 05:57:23;;;;;;;20.52;7.47;;;13.20;99.90;;;;;;4876421;28;88125;-70
2022/10/07 05:59:50;;;;;;;18.98;8.32;;;13.20;99.90;;;;;;4880158;28;88026;-69
2022/10/07 06:02:17;;;;;;;16.35;7.95;;;13.00;99.90;;;;;;4881162;28;86230;-69
2022/10/07 06:04:46;;;;;;;18.23;8.35;;;13.20;99.90;;;;;;4880252;28;86607;-69
2022/10/07 06:07:12;;;;;;;24.55;8.80;;;13.40;99.90;;;;;;4879233;28;87504;-69
2022/10/07 06:15:08;;;;;;;15.52;7.85;;;13.60;99.90;;;;;;4880952;28;86965;-69
2022/10/07 06:17:35;;;;;;;17.40;8.00;;;13.60;99.90;;;;;;4880813;28;87202;-69
2022/10/07 06:20:01;;;;;;;18.70;8.70;;;13.70;99.90;;;;;;4880072;28;87122;-69
2022/10/07 06:22:27;;;;;;;19.05;8.68;;;13.70;99.90;;;;;;4881065;28;86721;-69
2022/10/07 06:24:56;;;;;;;17.80;8.25;;;13.80;99.90;;;;;;4880717;28;86140;-69
2022/10/07 06:27:23;;;;;;;16.55;8.18;;;13.80;99.90;;;;;;4880685;28;86500;-68
2022/10/07 06:29:49;;;;;;;15.75;8.15;;;13.70;99.90;;;;;;4878594;28;89184;-70
2022/10/07 06:32:15;;;;;;;17.50;7.28;;;13.80;99.90;;;;;;4879850;28;87339;-69
2022/10/07 06:34:41;;;;;;;14.57;6.55;;;13.90;99.90;;;;;;4880292;28;87005;-69
2022/10/07 06:37:06;;;;;;;15.55;6.88;;;14.00;99.90;;;;;;4879963;28;87198;-69
2022/10/07 06:39:32;;;;;;;19.17;6.85;;;14.10;99.90;;;;;;4880151;28;87011;-69
2022/10/07 06:41:58;;;;;;;15.55;6.93;;;14.30;99.90;;;;;;4883894;28;86824;-71
2022/10/07 06:44:23;;;;;;;17.60;6.95;;;14.30;99.90;;;;;;4880527;28;86893;-70
2022/10/07 06:46:49;;;;;;;19.70;7.75;;;14.40;99.90;;;;;;4878442;28;91088;-69
2022/10/07 06:49:15;;;;;;;15.93;6.95;;;14.30;99.90;;;;;;4880477;28;86926;-71
2022/10/07 06:51:40;;;;;;;20.10;6.78;;;14.30;99.90;;;;;;4878920;28;86861;-71
2022/10/07 06:54:07;;;;;;;18.30;7.07;;;14.20;99.90;;;;;;4880635;28;86894;-71
2022/10/07 06:56:32;;;;;;;18.88;7.10;;;14.10;99.90;;;;;;4879499;28;87664;-71
2022/10/07 06:58:58;;;;;;;16.33;7.20;;;14.10;99.90;;;;;;4890465;28;88354;-70
2022/10/07 07:01:24;;;;;;;19.70;7.57;;;14.10;99.90;;;;;;4887960;28;86676;-70
2022/10/07 07:03:49;;;;;;;20.90;8.63;;;14.00;99.90;;;;;;4878719;28;86936;-70
2022/10/07 07:06:16;;;;;;;20.60;8.63;;;13.90;99.90;;;;;;4870024;28;87239;-70
2022/10/07 07:08:43;;;;;;;16.08;7.70;;;13.70;99.90;;;;;;4876906;28;86987;-68
2022/10/07 07:13:56;;;;;;;20.40;7.00;;;13.90;99.90;;;;;;4880236;28;86303;-70
2022/10/07 07:16:23;;;;;;;17.98;7.35;;;14.10;99.90;;;;;;4883726;28;86841;-70
2022/10/07 07:18:53;;;;;;;16.15;6.85;;;14.20;99.90;;;;;;4880134;28;86976;-68
2022/10/07 07:21:19;;;;;;;23.10;8.88;;;14.30;99.90;;;;;;4878091;28;87883;-68
2022/10/07 07:23:45;;;;;;;19.20;8.02;;;14.30;99.90;;;;;;4881013;28;87451;-70
2022/10/07 07:26:12;;;;;;;15.73;7.10;;;14.40;99.90;;;;;;4883898;28;87272;-70
2022/10/07 07:28:38;;;;;;;16.52;6.70;;;14.60;99.90;;;;;;4885148;28;87185;-70
2022/10/07 07:31:09;;;;;;;12.38;6.05;;;15.00;99.90;;;;;;4892747;28;86955;-70
2022/10/07 07:33:39;;;;;;;15.20;6.10;;;14.90;99.90;;;;;;4873232;28;86868;-70
2022/10/07 07:36:14;;;;;;;12.93;4.95;;;15.20;99.90;;;;;;4879358;28;87163;-70
2022/10/07 07:38:39;;;;;;;11.25;4.80;;;15.80;99.90;;;;;;4872397;28;86209;-70
2022/10/07 07:41:05;;;;;;;10.52;4.53;;;16.20;99.90;;;;;;4884885;28;87075;-70
2022/10/07 07:43:31;;;;;;;8.82;4.93;;;16.60;99.90;;;;;;4876834;28;86904;-70
2022/10/07 07:45:59;;;;;;;9.88;4.40;;;17.00;99.90;;;;;;4878242;28;89341;-70
2022/10/07 07:48:26;;;;;;;9.90;4.57;;;17.30;96.70;;;;;;4873198;28;88321;-70
2022/10/07 07:50:53;;;;;;;9.23;5.28;;;16.80;96.20;;;;;;4874075;28;87923;-72
2022/10/07 07:53:19;;;;;;;11.70;4.40;;;16.80;97.20;;;;;;4877305;28;87613;-70
2022/10/07 07:55:55;;;;;;;10.52;5.15;;;17.30;96.10;;;;;;4878854;28;86514;-70
2022/10/07 07:58:23;;;;;;;7.57;4.32;;;17.50;93.60;;;;;;4877031;28;86973;-70
2022/10/07 08:01:02;;;;;;;12.30;4.75;;;18.10;93.50;;;;;;4885057;28;86555;-70
2022/10/07 08:03:28;;;;;;;10.35;4.03;;;19.10;91.00;;;;;;4879289;28;85518;-70
2022/10/07 08:05:54;;;;;;;9.07;5.05;;;20.00;88.30;;;;;;4878647;28;87321;-68
2022/10/07 08:08:20;;;;;;;8.43;4.60;;;21.30;81.30;;;;;;4882971;28;86923;-70
2022/10/07 08:10:46;;;;;;;11.77;5.80;;;20.30;80.50;;;;;;4885799;28;87236;-70
2022/10/07 08:13:12;;;;;;;13.38;5.20;;;20.00;79.80;;;;;;4878073;28;86911;-70
2022/10/07 08:15:37;;;;;;;15.05;5.45;;;19.20;83.00;;;;;;4878879;28;87675;-70
2022/10/07 08:18:04;;;;;;;12.70;5.50;;;18.90;85.60;;;;;;4879616;28;86568;-70
2022/10/07 08:20:30;;;;;;;10.93;5.82;;;19.60;83.00;;;;;;4875747;28;86337;-70
2022/10/07 08:22:56;;;;;;;13.30;5.10;;;19.50;83.40;;;;;;4878185;28;87206;-70
2022/10/07 08:25:23;;;;;;;12.70;6.90;;;18.80;86.20;;;;;;4875600;28;87217;-70
2022/10/07 08:27:49;;;;;;;9.48;5.60;;;19.20;83.30;;;;;;4878363;28;87750;-70
2022/10/07 08:30:15;;;;;;;11.02;5.07;;;19.40;84.60;;;;;;4873799;28;86696;-70
2022/10/07 08:32:40;;;;;;;10.00;5.22;;;20.00;82.50;;;;;;4873514;28;86553;-71
2022/10/07 08:35:06;;;;;;;8.57;4.72;;;21.80;78.20;;;;;;4878108;28;87978;-71
2022/10/07 08:37:32;;;;;;;13.45;4.03;;;24.30;66.90;;;;;;4874448;28;87837;-71
2022/10/07 08:39:58;;;;;;;7.82;5.20;;;24.60;67.00;;;;;;4878265;28;86436;-69
2022/10/07 08:42:36;;;;;;;8.10;4.97;;;26.70;59.90;;;;;;4878476;28;87023;-69
2022/10/07 08:45:02;;;;;;;8.63;4.82;;;28.10;57.10;;;;;;4878000;28;86558;-69
2022/10/07 08:47:33;;;;;;;7.63;4.57;;;26.90;57.80;;;;;;4877092;28;86978;-69
2022/10/07 08:50:44;;;;;;;8.93;4.85;;;27.40;57.30;;;;;;4875063;28;86381;-69
2022/10/07 08:53:19;;;;;;;11.80;5.05;;;30.00;51.80;;;;;;4874722;28;85917;-69
2022/10/07 08:55:53;;;;;;;8.25;6.03;;;31.00;47.60;;;;;;4874085;28;89024;-70
2022/10/07 08:59:01;;;;;;;8.73;4.55;;;28.70;51.80;;;;;;4877868;28;87865;-69
2022/10/07 09:01:39;;;;;;;6.75;4.70;;;29.30;50.30;;;;;;4877079;28;87747;-70
2022/10/07 09:04:27;;;;;;;6.35;4.13;;;30.00;48.40;;;;;;4873806;28;86408;-69
2022/10/07 09:07:04;;;;;;;8.63;4.55;;;28.90;49.90;;;;;;4874229;28;87266;-69
2022/10/07 09:09:45;;;;;;;11.00;5.28;;;28.50;51.00;;;;;;4874108;28;86679;-69
2022/10/07 09:12:36;;;;;;;8.65;4.65;;;28.10;50.20;;;;;;4876739;28;86234;-70
2022/10/07 09:15:04;;;;;;;7.90;4.55;;;29.30;50.20;;;;;;4875841;28;86271;-70
2022/10/07 09:17:36;;;;;;;8.57;4.22;;;32.40;46.50;;;;;;4876761;28;89558;-70
2022/10/07 09:20:27;;;;;;;7.35;4.30;;;34.00;43.00;;;;;;4878148;28;87027;-70
2022/10/07 09:22:56;;;;;;;6.20;4.25;;;34.20;42.80;;;;;;4878313;28;86253;-70
2022/10/07 09:25:25;;;;;;;7.32;4.30;;;33.70;42.80;;;;;;4878461;28;86570;-70
2022/10/07 09:27:51;;;;;;;5.43;4.38;;;31.60;44.60;;;;;;4877018;28;88178;-70
2022/10/07 09:30:18;;;;;;;7.05;5.55;;;30.80;46.30;;;;;;4881390;28;87112;-70
2022/10/07 09:32:47;;;;;;;7.88;5.90;;;29.90;47.90;;;;;;4881265;28;86474;-70
2022/10/07 09:35:15;;;;;;;6.88;4.55;;;29.50;46.60;;;;;;4882002;28;86631;-69
2022/10/07 09:38:02;;;;;;;6.80;4.70;;;28.00;48.90;;;;;;4878252;28;87830;-69
2022/10/07 09:43:28;;;;;;;9.07;4.43;;;27.20;52.30;;;;;;4881450;28;86847;-69
2022/10/07 09:45:55;;;;;;;6.85;3.88;;;27.20;52.90;;;;;;4880086;28;86091;-69
2022/10/07 09:48:24;;;;;;;8.85;4.72;;;26.90;51.50;;;;;;4876846;28;86906;-69
2022/10/07 09:50:50;;;;;;;6.50;4.15;;;25.70;54.50;;;;;;4878254;28;86689;-69
2022/10/07 09:53:21;;;;;;;6.25;4.25;;;24.30;58.30;;;;;;4875850;28;87703;-69
2022/10/07 09:55:49;;;;;;;7.55;4.45;;;23.80;60.50;;;;;;4879129;28;86938;-69
2022/10/07 09:58:29;;;;;;;6.90;4.30;;;23.10;62.10;;;;;;4876554;28;87406;-70
2022/10/07 10:01:00;;;;;;;7.18;4.53;;;22.40;64.30;;;;;;4879588;28;86948;-69
2022/10/07 10:03:34;;;;;;;6.50;3.88;;;21.90;65.70;;;;;;4879190;28;86353;-71
2022/10/07 10:06:07;;;;;;;7.75;4.30;;;21.90;65.30;;;;;;4879790;28;86801;-71
2022/10/07 10:08:42;;;;;;;9.38;4.93;;;22.30;65.60;;;;;;4879944;28;86551;-71
2022/10/07 10:11:19;;;;;;;9.98;6.55;;;22.10;65.00;;;;;;4876518;28;86856;-70
2022/10/07 10:13:48;;;;;;;10.90;5.28;;;22.00;66.70;;;;;;4880649;28;86398;-71
2022/10/07 10:16:23;;;;;;;8.32;3.88;;;22.30;65.40;;;;;;4880792;28;87029;-71
2022/10/07 10:18:54;;;;;;;7.95;4.57;;;22.30;65.60;;;;;;4880965;28;88021;-71
2022/10/07 10:21:22;;;;;;;10.50;4.68;;;22.60;64.90;;;;;;4879788;28;87780;-71
2022/10/07 10:23:51;;;;;;;8.10;4.40;;;22.50;65.50;;;;;;4875378;28;86773;-71
2022/10/07 10:26:26;;;;;;;10.93;4.93;;;22.50;64.90;;;;;;4880995;28;86801;-71
2022/10/07 10:29:01;;;;;;;11.23;6.38;;;22.70;64.00;;;;;;4871783;28;87221;-71
2022/10/07 10:31:39;;;;;;;9.63;5.70;;;22.70;64.50;;;;;;4881371;28;86981;-71
2022/10/07 10:34:19;;;;;;;7.80;5.20;;;22.20;65.80;;;;;;4881740;28;86636;-71
2022/10/07 10:36:59;;;;;;;10.45;5.13;;;21.70;67.00;;;;;;4877856;28;86280;-70
2022/10/07 10:39:57;;;;;;;8.90;4.18;;;22.20;66.20;;;;;;4881313;28;87598;-70
2022/10/07 10:42:54;;;;;;;10.52;5.00;;;22.80;64.00;;;;;;4880937;28;87648;-71
2022/10/07 10:45:42;;;;;;;9.73;5.20;;;22.90;64.50;;;;;;4857017;28;87525;-70
2022/10/07 10:48:31;;;;;;;8.38;4.65;;;23.20;63.40;;;;;;4880534;28;86264;-71
2022/10/07 10:51:33;;;;;;;9.05;4.90;;;23.10;63.20;;;;;;4879423;28;87039;-70
2022/10/07 10:54:30;;;;;;;8.82;4.80;;;22.70;62.40;;;;;;4856272;28;87285;-71
2022/10/07 10:57:15;;;;;;;10.18;5.00;;;22.50;63.70;;;;;;4881592;28;86466;-71
2022/10/07 10:59:47;;;;;;;9.23;4.82;;;21.70;65.90;;;;;;4871444;28;86546;-71
2022/10/07 11:02:32;;;;;;;8.60;5.00;;;21.80;66.80;;;;;;4880389;28;87189;-70
2022/10/07 11:05:13;;;;;;;11.75;4.65;;;21.30;69.50;;;;;;4880298;28;86222;-69
2022/10/07 11:07:54;;;;;;;7.93;4.35;;;20.90;68.70;;;;;;4875582;28;86955;-68
2022/10/07 11:10:43;;;;;;;7.40;4.15;;;21.00;69.40;;;;;;4876449;28;86575;-67
2022/10/07 11:13:18;;;;;;;9.20;4.72;;;21.20;68.80;;;;;;4873205;28;88267;-68
2022/10/07 11:15:52;;;;;;;8.25;4.78;;;21.40;70.40;;;;;;4874490;28;89313;-71
2022/10/07 11:18:36;;;;;;;7.72;4.25;;;21.30;67.70;;;;;;4875618;28;86306;-71
2022/10/07 11:21:07;;;;;;;9.32;4.18;;;21.10;68.70;;;;;;4879288;28;86297;-71
2022/10/07 11:23:43;;;;;;;8.55;4.20;;;20.90;68.80;;;;;;4878333;28;86671;-71
2022/10/07 11:26:28;;;;;;;6.18;4.10;;;20.60;70.30;;;;;;4874491;28;87985;-71
2022/10/07 11:28:57;;;;;;;7.97;3.78;;;20.50;71.00;;;;;;4879479;28;87474;-71
2022/10/07 11:31:42;;;;;;;7.13;3.90;;;20.40;71.50;;;;;;4879379;28;85835;-71
2022/10/07 11:34:26;;;;;;;7.78;4.03;;;20.40;71.30;;;;;;4878904;28;86766;-70
2022/10/07 11:37:08;;;;;;;8.13;3.75;;;20.20;71.70;;;;;;4878603;28;86651;-70
2022/10/07 11:39:38;;;;;;;6.80;4.45;;;20.30;70.50;;;;;;4877325;28;87238;-70
2022/10/07 11:42:23;;;;;;;8.23;4.45;;;20.30;70.60;;;;;;4878490;28;86339;-70
2022/10/07 11:45:00;;;;;;;7.28;3.83;;;20.10;72.40;;;;;;4878936;28;86665;-70
2022/10/07 11:47:40;;;;;;;7.97;4.38;;;20.30;73.00;;;;;;4887618;28;87159;-71
2022/10/07 11:50:11;;;;;;;8.70;4.65;;;20.30;73.70;;;;;;4878445;28;86680;-71
2022/10/07 11:52:46;;;;;;;10.18;4.72;;;20.30;72.00;;;;;;4878829;28;86727;-71
2022/10/07 11:55:50;;;;;;;9.13;4.75;;;20.20;72.40;;;;;;4882076;28;87177;-71
2022/10/07 11:58:37;;;;;;;8.57;4.93;;;19.80;72.80;;;;;;4872121;28;87320;-70
2022/10/07 12:01:25;;;;;;;9.35;4.78;;;19.70;73.40;;;;;;4878410;28;86365;-71
2022/10/07 12:04:14;;;;;;;10.65;5.75;;;19.60;73.80;;;;;;4875474;28;86718;-70
2022/10/07 12:07:18;;;;;;;8.95;4.95;;;19.70;73.40;;;;;;4876691;28;88116;-70
2022/10/07 12:10:02;;;;;;;8.55;4.82;;;19.90;73.40;;;;;;4871215;28;87306;-71
2022/10/07 12:12:45;;;;;;;9.90;5.20;;;19.70;74.20;;;;;;4878603;28;87221;-70
2022/10/07 12:15:29;;;;;;;10.57;5.15;;;19.50;74.00;;;;;;4884057;28;86849;-71
2022/10/07 12:18:04;;;;;;;10.00;5.80;;;19.30;74.80;;;;;;4880653;28;87231;-71
2022/10/07 12:20:36;;;;;;;9.02;4.80;;;19.30;76.20;;;;;;4877048;28;87083;-70
2022/10/07 12:23:24;;;;;;;10.23;4.90;;;19.30;75.20;;;;;;4875573;28;87162;-71
2022/10/07 12:25:57;;;;;;;11.32;5.32;;;19.10;77.40;;;;;;4871692;28;85456;-71
2022/10/07 12:28:28;;;;;;;11.32;5.13;;;19.10;76.10;;;;;;4874617;28;87394;-71
2022/10/07 12:31:17;;;;;;;14.93;5.90;;;18.90;77.10;;;;;;4879876;28;86905;-71
2022/10/07 12:33:46;;;;;;;11.82;6.07;;;18.80;77.20;;;;;;4849787;28;87690;-72
2022/10/07 12:36:20;;;;;;;11.80;5.72;;;18.80;78.70;;;;;;4873008;28;86957;-70
2022/10/07 12:38:58;;;;;;;12.25;6.05;;;18.90;79.40;;;;;;4878374;28;86722;-71
2022/10/07 12:41:37;;;;;;;12.07;5.50;;;19.10;77.90;;;;;;4878671;28;86366;-72
2022/10/07 12:44:25;;;;;;;13.57;6.68;;;19.00;77.70;;;;;;4872162;28;86593;-71
2022/10/07 12:47:09;;;;;;;12.10;6.30;;;18.70;80.20;;;;;;4883015;28;86671;-71
2022/10/07 12:49:59;;;;;;;10.65;5.88;;;18.30;82.00;;;;;;4884398;28;87410;-69
2022/10/07 12:52:30;;;;;;;11.68;5.53;;;18.20;83.60;;;;;;4878962;28;87430;-71
2022/10/07 12:55:06;;;;;;;10.50;6.03;;;18.30;81.90;;;;;;4878171;28;86933;-71
2022/10/07 12:57:37;;;;;;;14.05;6.32;;;18.40;81.50;;;;;;4879379;28;86263;-71
2022/10/07 13:00:24;;;;;;;13.20;6.28;;;18.40;81.00;;;;;;4881656;28;87762;-70
2022/10/07 13:03:26;;;;;;;14.25;6.82;;;18.20;83.50;;;;;;4881655;28;90810;-71
2022/10/07 13:06:22;;;;;;;10.90;6.03;;;18.30;84.30;;;;;;4881631;28;86660;-71
2022/10/07 13:08:48;;;;;;;12.93;6.47;;;18.40;83.20;;;;;;4882313;28;86756;-71
2022/10/07 13:11:16;;;;;;;9.75;5.65;;;18.50;81.90;;;;;;4877602;28;87875;-72
2022/10/07 13:13:45;;;;;;;13.30;6.85;;;18.60;83.10;;;;;;4879996;28;87423;-71
2022/10/07 13:16:40;;;;;;;13.50;6.38;;;18.60;81.50;;;;;;4878425;28;87105;-71
2022/10/07 13:19:18;;;;;;;15.18;6.75;;;18.70;81.90;;;;;;4878336;28;85988;-71
2022/10/07 13:22:04;;;;;;;13.25;6.95;;;18.70;82.10;;;;;;4880924;28;87865;-72
2022/10/07 13:24:30;;;;;;;13.02;6.45;;;18.50;83.00;;;;;;4876461;28;87296;-71
2022/10/07 13:26:58;;;;;;;13.73;7.25;;;18.50;82.20;;;;;;4881948;28;88013;-71
2022/10/07 13:29:28;;;;;;;12.48;6.93;;;18.50;82.30;;;;;;4882087;28;86925;-72
2022/10/07 13:32:05;;;;;;;19.17;7.63;;;18.60;81.30;;;;;;4882046;28;88141;-71
2022/10/07 13:34:32;;;;;;;14.45;7.10;;;18.50;82.60;;;;;;4881985;28;86882;-71
2022/10/07 13:36:58;;;;;;;13.95;7.35;;;18.30;83.10;;;;;;4880795;28;87544;-72
2022/10/07 13:39:24;;;;;;;12.85;7.28;;;18.30;83.60;;;;;;4881696;28;87026;-71
2022/10/07 13:41:56;;;;;;;14.95;7.18;;;18.20;84.20;;;;;;4880898;28;87334;-72
2022/10/07 13:44:29;;;;;;;16.08;7.38;;;18.00;85.40;;;;;;4881516;28;87016;-71
2022/10/07 13:47:04;;;;;;;13.10;6.80;;;17.90;86.10;;;;;;4882057;28;86437;-71
2022/10/07 13:49:37;;;;;;;16.08;6.75;;;18.00;87.00;;;;;;4876845;28;87675;-71
2022/10/07 13:52:05;;;;;;;13.02;6.97;;;18.00;85.40;;;;;;4879712;28;87702;-71
2022/10/07 13:54:32;;;;;;;14.27;6.20;;;17.90;86.10;;;;;;4882097;28;87990;-71
2022/10/07 13:57:01;;;;;;;11.73;6.35;;;17.80;86.90;;;;;;4882220;28;86744;-71
2022/10/07 13:59:27;;;;;;;13.02;6.90;;;18.00;85.70;;;;;;4881074;28;86532;-72
2022/10/07 14:01:57;;;;;;;12.90;7.55;;;18.20;85.30;;;;;;4880074;28;87423;-71
2022/10/07 14:04:32;;;;;;;17.67;7.22;;;17.90;86.90;;;;;;4879841;28;86980;-71
2022/10/07 14:07:20;;;;;;;14.55;7.13;;;18.00;86.80;;;;;;4879810;28;86614;-72
2022/10/07 14:09:45;;;;;;;15.13;6.70;;;17.80;86.60;;;;;;4881374;28;85507;-71
2022/10/07 14:12:30;;;;;;;16.92;6.57;;;17.90;87.60;;;;;;4876932;28;88583;-71
2022/10/07 14:15:12;;;;;;;13.27;7.05;;;17.80;86.80;;;;;;4869930;28;86964;-71
2022/10/07 14:17:37;;;;;;;13.45;6.80;;;17.80;86.80;;;;;;4878580;28;87902;-70
2022/10/07 14:20:14;;;;;;;12.73;5.60;;;17.70;88.20;;;;;;4880399;28;86967;-70
2022/10/07 14:22:41;;;;;;;16.13;7.45;;;17.70;88.60;;;;;;4879760;28;86845;-71
2022/10/07 14:25:21;;;;;;;13.45;6.50;;;17.50;89.00;;;;;;4879201;28;86760;-70
2022/10/07 14:27:56;;;;;;;15.30;7.22;;;17.40;90.30;;;;;;4879678;28;86866;-71
2022/10/07 14:30:27;;;;;;;16.95;6.50;;;17.40;89.40;;;;;;4879531;28;86765;-71
2022/10/07 14:36:13;;;;;;;15.30;7.25;;;17.50;90.20;;;;;;4875749;28;86685;-70
2022/10/07 14:38:40;;;;;;;17.70;7.10;;;17.30;90.40;;;;;;4877626;28;86245;-71
2022/10/07 14:41:07;;;;;;;13.30;7.72;;;17.50;90.60;;;;;;4880175;28;87436;-70
2022/10/07 14:43:34;;;;;;;16.05;7.18;;;17.50;90.10;;;;;;4878771;28;87706;-70
2022/10/07 14:46:14;;;;;;;14.30;7.00;;;17.50;90.00;;;;;;4879130;28;88701;-70
2022/10/07 14:48:40;;;;;;;12.55;6.18;;;17.60;89.00;;;;;;4879571;28;87405;-70
2022/10/07 14:51:06;;;;;;;11.98;7.30;;;17.60;89.30;;;;;;4879008;28;86857;-69
2022/10/07 14:53:33;;;;;;;15.50;7.78;;;17.70;88.30;;;;;;4876948;28;88116;-70
2022/10/07 14:55:58;;;;;;;12.85;7.43;;;17.70;88.50;;;;;;4878262;28;87198;-69
2022/10/07 14:58:24;;;;;;;12.88;7.13;;;17.70;89.70;;;;;;4879128;28;86803;-70
2022/10/07 15:00:50;;;;;;;14.18;8.02;;;17.60;89.40;;;;;;4879538;28;85958;-71
2022/10/07 15:03:16;;;;;;;16.92;7.05;;;17.60;90.40;;;;;;4878710;28;86720;-70
2022/10/07 15:05:42;;;;;;;13.07;6.97;;;17.50;90.20;;;;;;4878356;28;86940;-71
2022/10/07 15:08:11;;;;;;;14.73;7.13;;;17.30;90.70;;;;;;4879391;28;87463;-70
2022/10/07 15:10:40;;;;;;;12.95;7.25;;;17.50;90.20;;;;;;4879354;28;86290;-71
2022/10/07 15:13:08;;;;;;;15.13;9.32;;;17.60;90.50;;;;;;4880263;28;87287;-71
2022/10/07 15:15:37;;;;;;;19.70;7.68;;;17.40;90.60;;;;;;4880120;28;86969;-71
2022/10/07 15:18:04;;;;;;;17.77;7.68;;;17.30;90.80;;;;;;4877247;28;86513;-71
2022/10/07 15:20:29;;;;;;;14.57;8.07;;;17.40;90.30;;;;;;4876997;28;87003;-71
2022/10/07 15:22:55;;;;;;;18.35;7.53;;;17.50;90.60;;;;;;4879980;28;86637;-72
2022/10/07 15:25:21;;;;;;;14.95;7.65;;;17.50;90.70;;;;;;4878435;28;87399;-71
2022/10/07 15:27:47;;;;;;;16.50;7.90;;;17.50;90.50;;;;;;4879064;28;87122;-71
2022/10/07 15:30:13;;;;;;;13.10;7.40;;;17.40;90.90;;;;;;4879391;28;86275;-71
2022/10/07 15:32:39;;;;;;;15.45;8.45;;;17.50;90.70;;;;;;4876587;28;89618;-71
2022/10/07 15:35:06;;;;;;;19.08;7.85;;;17.50;90.70;;;;;;4880517;28;87790;-71
2022/10/07 15:37:32;;;;;;;14.82;7.75;;;17.30;91.10;;;;;;4876006;28;86599;-71
2022/10/07 15:39:58;;;;;;;17.70;8.77;;;17.20;91.30;;;;;;4880213;28;86984;-71
2022/10/07 15:42:24;;;;;;;16.27;8.93;;;17.20;91.50;;;;;;4876309;28;87518;-71
2022/10/07 15:44:51;;;;;;;13.32;7.13;;;17.20;91.90;;;;;;4880079;28;87101;-71
2022/10/07 15:47:18;;;;;;;14.77;7.43;;;17.10;91.60;;;;;;4877695;28;86396;-71
2022/10/07 15:49:43;;;;;;;15.75;8.07;;;17.20;91.50;;;;;;4880523;28;85755;-71
2022/10/07 15:52:10;;;;;;;15.57;7.82;;;17.20;91.70;;;;;;4873272;28;87715;-73
2022/10/07 15:54:37;;;;;;;12.55;6.65;;;17.10;91.70;;;;;;4876589;28;86909;-71
2022/10/07 15:57:03;;;;;;;13.60;7.10;;;17.20;91.50;;;;;;4878871;28;87710;-71
2022/10/07 15:59:29;;;;;;;14.27;7.43;;;17.20;91.60;;;;;;4877218;28;86999;-71
2022/10/07 16:01:54;;;;;;;20.10;8.57;;;17.20;91.70;;;;;;4879462;28;86503;-71
2022/10/07 16:04:20;;;;;;;15.95;7.72;;;17.20;91.20;;;;;;4880704;28;87345;-72